sensor_id;sensor_type;location;lat;lon;timestamp;P1;durP1;ratioP1;P2;durP2;ratioP2
15966;SDS011;15175;48.154;11.534;2024-01-30T00:01:11;10.90;;;4.03;;
15966;SDS011;15175;48.154;11.534;2024-01-30T00:07:14;9.20;;;4.13;;
15966;SDS011;15175;48.154;11.534;2024-01-30T00:13:17;10.23;;;4.32;;
15966;SDS011;15175;48.154;11.534;2024-01-30T00:19:20;10.25;;;3.60;;
15966;SDS011;15175;48.154;11.534;2024-01-30T00:25:24;11.50;;;4.53;;
15966;SDS011;15175;48.154;11.534;2024-01-30T00:31:26;12.32;;;4.68;;
15966;SDS011;15175;48.154;11.534;2024-01-30T00:37:28;11.68;;;4.10;;
15966;SDS011;15175;48.154;11.534;2024-01-30T00:43:33;6.95;;;2.85;;
15966;SDS011;15175;48.154;11.534;2024-01-30T00:49:35;8.82;;;3.70;;
15966;SDS011;15175;48.154;11.534;2024-01-30T00:55:38;10.23;;;4.43;;
15966;SDS011;15175;48.154;11.534;2024-01-30T01:01:41;12.52;;;4.22;;
15966;SDS011;15175;48.154;11.534;2024-01-30T01:13:47;10.90;;;4.13;;
15966;SDS011;15175;48.154;11.534;2024-01-30T01:19:51;8.60;;;3.78;;
15966;SDS011;15175;48.154;11.534;2024-01-30T01:31:55;6.80;;;3.33;;
15966;SDS011;15175;48.154;11.534;2024-01-30T01:37:59;8.73;;;3.53;;
15966;SDS011;15175;48.154;11.534;2024-01-30T01:44:02;8.63;;;3.85;;
15966;SDS011;15175;48.154;11.534;2024-01-30T01:50:05;10.38;;;4.03;;
15966;SDS011;15175;48.154;11.534;2024-01-30T01:56:09;8.88;;;3.38;;
15966;SDS011;15175;48.154;11.534;2024-01-30T02:08:14;7.35;;;3.53;;
15966;SDS011;15175;48.154;11.534;2024-01-30T02:14:18;8.32;;;3.00;;
15966;SDS011;15175;48.154;11.534;2024-01-30T02:20:20;7.88;;;3.30;;
15966;SDS011;15175;48.154;11.534;2024-01-30T02:26:25;8.43;;;3.15;;
15966;SDS011;15175;48.154;11.534;2024-01-30T02:32:27;7.38;;;3.30;;
15966;SDS011;15175;48.154;11.534;2024-01-30T02:38:29;8.95;;;3.47;;
15966;SDS011;15175;48.154;11.534;2024-01-30T02:44:33;10.20;;;3.20;;
15966;SDS011;15175;48.154;11.534;2024-01-30T02:50:35;7.97;;;3.00;;
15966;SDS011;15175;48.154;11.534;2024-01-30T02:56:37;7.35;;;3.13;;
15966;SDS011;15175;48.154;11.534;2024-01-30T03:02:41;8.63;;;2.47;;
15966;SDS011;15175;48.154;11.534;2024-01-30T03:08:43;9.63;;;3.10;;
15966;SDS011;15175;48.154;11.534;2024-01-30T03:14:45;6.78;;;2.60;;
15966;SDS011;15175;48.154;11.534;2024-01-30T03:20:49;5.78;;;2.30;;
15966;SDS011;15175;48.154;11.534;2024-01-30T03:26:51;7.30;;;2.50;;
15966;SDS011;15175;48.154;11.534;2024-01-30T03:32:54;6.63;;;2.15;;
15966;SDS011;15175;48.154;11.534;2024-01-30T03:38:58;6.32;;;2.10;;
15966;SDS011;15175;48.154;11.534;2024-01-30T03:45:01;4.25;;;2.38;;
15966;SDS011;15175;48.154;11.534;2024-01-30T03:51:03;6.32;;;1.98;;
15966;SDS011;15175;48.154;11.534;2024-01-30T03:57:07;6.15;;;2.13;;
15966;SDS011;15175;48.154;11.534;2024-01-30T04:03:09;4.93;;;1.95;;
15966;SDS011;15175;48.154;11.534;2024-01-30T04:09:12;4.53;;;1.75;;
15966;SDS011;15175;48.154;11.534;2024-01-30T04:15:16;5.72;;;1.73;;
15966;SDS011;15175;48.154;11.534;2024-01-30T04:21:20;4.35;;;1.70;;
15966;SDS011;15175;48.154;11.534;2024-01-30T04:27:22;6.55;;;2.55;;
15966;SDS011;15175;48.154;11.534;2024-01-30T04:33:26;4.03;;;1.63;;
15966;SDS011;15175;48.154;11.534;2024-01-30T04:45:30;8.60;;;2.10;;
15966;SDS011;15175;48.154;11.534;2024-01-30T04:51:34;5.75;;;2.10;;
15966;SDS011;15175;48.154;11.534;2024-01-30T04:57:36;5.45;;;1.77;;
15966;SDS011;15175;48.154;11.534;2024-01-30T05:03:38;6.80;;;1.75;;
15966;SDS011;15175;48.154;11.534;2024-01-30T05:09:41;4.72;;;1.70;;
15966;SDS011;15175;48.154;11.534;2024-01-30T05:15:44;6.28;;;2.20;;
15966;SDS011;15175;48.154;11.534;2024-01-30T05:21:46;7.00;;;2.35;;
15966;SDS011;15175;48.154;11.534;2024-01-30T05:27:50;6.82;;;2.50;;
15966;SDS011;15175;48.154;11.534;2024-01-30T05:33:52;8.10;;;2.28;;
15966;SDS011;15175;48.154;11.534;2024-01-30T05:39:54;6.10;;;2.30;;
15966;SDS011;15175;48.154;11.534;2024-01-30T05:45:58;10.02;;;3.92;;
15966;SDS011;15175;48.154;11.534;2024-01-30T05:52:01;6.82;;;2.63;;
15966;SDS011;15175;48.154;11.534;2024-01-30T05:58:04;7.32;;;2.30;;
15966;SDS011;15175;48.154;11.534;2024-01-30T06:04:08;8.30;;;2.92;;
15966;SDS011;15175;48.154;11.534;2024-01-30T06:10:10;7.85;;;2.90;;
15966;SDS011;15175;48.154;11.534;2024-01-30T06:16:12;7.00;;;2.15;;
15966;SDS011;15175;48.154;11.534;2024-01-30T06:22:16;7.75;;;2.92;;
15966;SDS011;15175;48.154;11.534;2024-01-30T06:28:18;5.45;;;2.08;;
15966;SDS011;15175;48.154;11.534;2024-01-30T06:34:21;14.65;;;2.40;;
15966;SDS011;15175;48.154;11.534;2024-01-30T06:40:25;8.57;;;2.97;;
15966;SDS011;15175;48.154;11.534;2024-01-30T06:46:27;9.27;;;2.83;;
15966;SDS011;15175;48.154;11.534;2024-01-30T06:52:29;7.85;;;2.13;;
15966;SDS011;15175;48.154;11.534;2024-01-30T06:58:33;8.52;;;2.50;;
15966;SDS011;15175;48.154;11.534;2024-01-30T07:04:35;28.48;;;4.47;;
15966;SDS011;15175;48.154;11.534;2024-01-30T07:10:39;9.20;;;2.30;;
15966;SDS011;15175;48.154;11.534;2024-01-30T07:16:43;11.38;;;3.25;;
15966;SDS011;15175;48.154;11.534;2024-01-30T07:22:45;8.85;;;2.88;;
15966;SDS011;15175;48.154;11.534;2024-01-30T07:28:47;13.07;;;3.33;;
15966;SDS011;15175;48.154;11.534;2024-01-30T07:34:51;24.08;;;4.38;;
15966;SDS011;15175;48.154;11.534;2024-01-30T07:40:54;24.30;;;4.60;;
15966;SDS011;15175;48.154;11.534;2024-01-30T07:46:56;6.28;;;2.10;;
15966;SDS011;15175;48.154;11.534;2024-01-30T07:53:02;13.75;;;3.92;;
15966;SDS011;15175;48.154;11.534;2024-01-30T07:59:04;8.63;;;2.60;;
15966;SDS011;15175;48.154;11.534;2024-01-30T08:05:06;13.70;;;3.25;;
15966;SDS011;15175;48.154;11.534;2024-01-30T08:11:12;14.23;;;2.80;;
15966;SDS011;15175;48.154;11.534;2024-01-30T08:23:16;16.38;;;3.13;;
15966;SDS011;15175;48.154;11.534;2024-01-30T08:29:20;134.32;;;14.30;;
15966;SDS011;15175;48.154;11.534;2024-01-30T08:35:22;32.15;;;7.35;;
15966;SDS011;15175;48.154;11.534;2024-01-30T08:41:24;28.40;;;4.78;;
15966;SDS011;15175;48.154;11.534;2024-01-30T08:47:28;15.73;;;4.20;;
15966;SDS011;15175;48.154;11.534;2024-01-30T08:59:32;12.02;;;2.80;;
15966;SDS011;15175;48.154;11.534;2024-01-30T09:05:36;13.75;;;2.42;;
15966;SDS011;15175;48.154;11.534;2024-01-30T09:11:38;12.55;;;3.10;;
15966;SDS011;15175;48.154;11.534;2024-01-30T09:17:40;35.97;;;3.58;;
15966;SDS011;15175;48.154;11.534;2024-01-30T09:23:44;16.35;;;3.13;;
15966;SDS011;15175;48.154;11.534;2024-01-30T09:29:46;15.68;;;4.20;;
15966;SDS011;15175;48.154;11.534;2024-01-30T09:35:48;12.52;;;2.97;;
15966;SDS011;15175;48.154;11.534;2024-01-30T09:41:54;6.63;;;2.42;;
15966;SDS011;15175;48.154;11.534;2024-01-30T09:48:03;18.55;;;3.95;;
15966;SDS011;15175;48.154;11.534;2024-01-30T09:54:06;4.07;;;1.52;;
15966;SDS011;15175;48.154;11.534;2024-01-30T10:00:12;25.17;;;8.73;;
15966;SDS011;15175;48.154;11.534;2024-01-30T10:06:14;10.82;;;2.58;;
15966;SDS011;15175;48.154;11.534;2024-01-30T10:12:18;8.93;;;2.67;;
15966;SDS011;15175;48.154;11.534;2024-01-30T10:18:21;8.35;;;2.38;;
15966;SDS011;15175;48.154;11.534;2024-01-30T10:24:24;6.53;;;2.38;;
15966;SDS011;15175;48.154;11.534;2024-01-30T10:30:27;6.10;;;2.30;;
15966;SDS011;15175;48.154;11.534;2024-01-30T10:36:30;11.70;;;3.00;;
15966;SDS011;15175;48.154;11.534;2024-01-30T10:42:42;7.43;;;2.83;;
15966;SDS011;15175;48.154;11.534;2024-01-30T10:48:46;8.93;;;3.42;;
15966;SDS011;15175;48.154;11.534;2024-01-30T10:54:54;5.05;;;1.90;;
15966;SDS011;15175;48.154;11.534;2024-01-30T11:00:56;5.25;;;1.80;;
15966;SDS011;15175;48.154;11.534;2024-01-30T11:06:59;5.88;;;1.50;;
15966;SDS011;15175;48.154;11.534;2024-01-30T11:13:13;6.28;;;1.20;;
15966;SDS011;15175;48.154;11.534;2024-01-30T11:19:15;5.47;;;1.27;;
15966;SDS011;15175;48.154;11.534;2024-01-30T11:25:25;3.40;;;1.45;;
15966;SDS011;15175;48.154;11.534;2024-01-30T11:31:29;5.88;;;1.90;;
15966;SDS011;15175;48.154;11.534;2024-01-30T11:37:31;8.48;;;1.63;;
15966;SDS011;15175;48.154;11.534;2024-01-30T11:43:33;5.97;;;1.80;;
15966;SDS011;15175;48.154;11.534;2024-01-30T11:49:37;6.28;;;1.63;;
15966;SDS011;15175;48.154;11.534;2024-01-30T11:55:40;4.43;;;1.80;;
15966;SDS011;15175;48.154;11.534;2024-01-30T12:01:43;4.35;;;1.52;;
15966;SDS011;15175;48.154;11.534;2024-01-30T12:07:46;7.32;;;2.90;;
15966;SDS011;15175;48.154;11.534;2024-01-30T12:13:49;6.80;;;1.60;;
15966;SDS011;15175;48.154;11.534;2024-01-30T12:20:02;6.68;;;1.20;;
15966;SDS011;15175;48.154;11.534;2024-01-30T12:26:06;4.32;;;1.20;;
15966;SDS011;15175;48.154;11.534;2024-01-30T12:32:09;8.48;;;1.30;;
15966;SDS011;15175;48.154;11.534;2024-01-30T12:38:17;6.55;;;2.67;;
15966;SDS011;15175;48.154;11.534;2024-01-30T12:44:20;3.65;;;1.10;;
15966;SDS011;15175;48.154;11.534;2024-01-30T12:50:22;7.53;;;2.78;;
15966;SDS011;15175;48.154;11.534;2024-01-30T12:56:25;11.65;;;5.60;;
15966;SDS011;15175;48.154;11.534;2024-01-30T13:02:28;7.63;;;2.20;;
15966;SDS011;15175;48.154;11.534;2024-01-30T13:08:35;3.90;;;1.30;;
15966;SDS011;15175;48.154;11.534;2024-01-30T13:14:37;5.57;;;1.33;;
15966;SDS011;15175;48.154;11.534;2024-01-30T13:20:41;5.28;;;1.90;;
15966;SDS011;15175;48.154;11.534;2024-01-30T13:26:43;7.25;;;2.28;;
15966;SDS011;15175;48.154;11.534;2024-01-30T13:32:45;8.55;;;1.20;;
15966;SDS011;15175;48.154;11.534;2024-01-30T13:38:49;7.18;;;1.65;;
15966;SDS011;15175;48.154;11.534;2024-01-30T13:44:51;5.00;;;1.30;;
15966;SDS011;15175;48.154;11.534;2024-01-30T13:50:54;11.57;;;2.22;;
15966;SDS011;15175;48.154;11.534;2024-01-30T13:56:57;35.72;;;5.18;;
15966;SDS011;15175;48.154;11.534;2024-01-30T14:03:00;8.20;;;1.63;;
15966;SDS011;15175;48.154;11.534;2024-01-30T14:09:03;6.90;;;2.13;;
15966;SDS011;15175;48.154;11.534;2024-01-30T14:15:08;8.18;;;1.40;;
15966;SDS011;15175;48.154;11.534;2024-01-30T14:21:11;6.32;;;1.20;;
15966;SDS011;15175;48.154;11.534;2024-01-30T14:27:13;4.75;;;1.67;;
15966;SDS011;15175;48.154;11.534;2024-01-30T14:33:17;10.98;;;1.80;;
15966;SDS011;15175;48.154;11.534;2024-01-30T14:39:19;5.50;;;1.75;;
15966;SDS011;15175;48.154;11.534;2024-01-30T14:45:22;6.90;;;1.98;;
15966;SDS011;15175;48.154;11.534;2024-01-30T14:51:26;7.72;;;3.05;;
15966;SDS011;15175;48.154;11.534;2024-01-30T14:57:29;6.15;;;2.28;;
15966;SDS011;15175;48.154;11.534;2024-01-30T15:03:32;7.45;;;1.80;;
15966;SDS011;15175;48.154;11.534;2024-01-30T15:09:37;6.90;;;2.03;;
15966;SDS011;15175;48.154;11.534;2024-01-30T15:15:39;7.25;;;2.03;;
15966;SDS011;15175;48.154;11.534;2024-01-30T15:21:43;11.00;;;2.45;;
15966;SDS011;15175;48.154;11.534;2024-01-30T15:27:46;6.60;;;2.42;;
15966;SDS011;15175;48.154;11.534;2024-01-30T15:33:49;10.75;;;2.22;;
15966;SDS011;15175;48.154;11.534;2024-01-30T15:39:51;12.15;;;3.63;;
15966;SDS011;15175;48.154;11.534;2024-01-30T15:45:55;14.80;;;4.40;;
15966;SDS011;15175;48.154;11.534;2024-01-30T15:51:58;14.88;;;4.70;;
15966;SDS011;15175;48.154;11.534;2024-01-30T15:58:00;10.13;;;3.97;;
15966;SDS011;15175;48.154;11.534;2024-01-30T16:04:05;9.90;;;4.05;;
15966;SDS011;15175;48.154;11.534;2024-01-30T16:10:08;19.00;;;4.90;;
15966;SDS011;15175;48.154;11.534;2024-01-30T16:16:16;14.48;;;4.63;;
15966;SDS011;15175;48.154;11.534;2024-01-30T16:22:20;12.73;;;4.00;;
15966;SDS011;15175;48.154;11.534;2024-01-30T16:28:23;17.58;;;5.18;;
15966;SDS011;15175;48.154;11.534;2024-01-30T16:34:26;19.10;;;5.57;;
15966;SDS011;15175;48.154;11.534;2024-01-30T16:40:30;20.27;;;5.78;;
15966;SDS011;15175;48.154;11.534;2024-01-30T16:46:34;27.50;;;8.95;;
15966;SDS011;15175;48.154;11.534;2024-01-30T16:52:38;30.38;;;7.03;;
15966;SDS011;15175;48.154;11.534;2024-01-30T16:58:42;25.90;;;6.68;;
15966;SDS011;15175;48.154;11.534;2024-01-30T17:04:44;29.23;;;6.85;;
15966;SDS011;15175;48.154;11.534;2024-01-30T17:10:46;22.85;;;8.18;;
15966;SDS011;15175;48.154;11.534;2024-01-30T17:16:50;25.20;;;7.25;;
15966;SDS011;15175;48.154;11.534;2024-01-30T17:22:53;37.80;;;7.65;;
15966;SDS011;15175;48.154;11.534;2024-01-30T17:28:55;16.95;;;6.80;;
15966;SDS011;15175;48.154;11.534;2024-01-30T17:34:59;20.20;;;5.90;;
15966;SDS011;15175;48.154;11.534;2024-01-30T17:41:02;25.70;;;6.63;;
15966;SDS011;15175;48.154;11.534;2024-01-30T17:47:04;20.00;;;6.25;;
15966;SDS011;15175;48.154;11.534;2024-01-30T17:53:08;19.08;;;5.75;;
15966;SDS011;15175;48.154;11.534;2024-01-30T17:59:11;17.17;;;5.28;;
15966;SDS011;15175;48.154;11.534;2024-01-30T18:05:13;24.52;;;5.60;;
15966;SDS011;15175;48.154;11.534;2024-01-30T18:11:17;16.40;;;5.10;;
15966;SDS011;15175;48.154;11.534;2024-01-30T18:17:19;15.32;;;4.70;;
15966;SDS011;15175;48.154;11.534;2024-01-30T18:23:21;20.77;;;4.57;;
15966;SDS011;15175;48.154;11.534;2024-01-30T18:29:25;15.07;;;4.78;;
15966;SDS011;15175;48.154;11.534;2024-01-30T18:35:27;11.00;;;4.05;;
15966;SDS011;15175;48.154;11.534;2024-01-30T18:41:29;12.13;;;3.75;;
15966;SDS011;15175;48.154;11.534;2024-01-30T18:47:33;12.02;;;3.67;;
15966;SDS011;15175;48.154;11.534;2024-01-30T18:53:35;12.50;;;4.05;;
15966;SDS011;15175;48.154;11.534;2024-01-30T18:59:38;12.18;;;4.05;;
15966;SDS011;15175;48.154;11.534;2024-01-30T19:05:41;14.00;;;3.28;;
15966;SDS011;15175;48.154;11.534;2024-01-30T19:11:44;16.90;;;4.03;;
15966;SDS011;15175;48.154;11.534;2024-01-30T19:17:46;12.10;;;4.03;;
15966;SDS011;15175;48.154;11.534;2024-01-30T19:23:49;9.23;;;3.97;;
15966;SDS011;15175;48.154;11.534;2024-01-30T19:29:53;13.70;;;3.88;;
15966;SDS011;15175;48.154;11.534;2024-01-30T19:35:57;11.40;;;4.07;;
15966;SDS011;15175;48.154;11.534;2024-01-30T19:42:01;13.52;;;5.07;;
15966;SDS011;15175;48.154;11.534;2024-01-30T19:48:04;14.90;;;5.25;;
15966;SDS011;15175;48.154;11.534;2024-01-30T20:00:12;15.40;;;5.18;;
15966;SDS011;15175;48.154;11.534;2024-01-30T20:06:15;17.20;;;5.40;;
15966;SDS011;15175;48.154;11.534;2024-01-30T20:12:17;15.82;;;5.13;;
15966;SDS011;15175;48.154;11.534;2024-01-30T20:18:21;12.93;;;4.10;;
15966;SDS011;15175;48.154;11.534;2024-01-30T20:24:23;9.18;;;4.03;;
15966;SDS011;15175;48.154;11.534;2024-01-30T20:30:25;10.82;;;4.10;;
15966;SDS011;15175;48.154;11.534;2024-01-30T20:36:29;9.77;;;3.65;;
15966;SDS011;15175;48.154;11.534;2024-01-30T20:42:31;12.15;;;3.95;;
15966;SDS011;15175;48.154;11.534;2024-01-30T20:48:34;9.48;;;3.65;;
15966;SDS011;15175;48.154;11.534;2024-01-30T20:54:37;12.20;;;4.47;;
15966;SDS011;15175;48.154;11.534;2024-01-30T21:00:40;7.63;;;3.80;;
15966;SDS011;15175;48.154;11.534;2024-01-30T21:06:42;14.13;;;7.00;;
15966;SDS011;15175;48.154;11.534;2024-01-30T21:12:46;13.02;;;3.78;;
15966;SDS011;15175;48.154;11.534;2024-01-30T21:18:48;8.88;;;3.58;;
15966;SDS011;15175;48.154;11.534;2024-01-30T21:24:51;9.95;;;3.47;;
15966;SDS011;15175;48.154;11.534;2024-01-30T21:30:54;8.38;;;3.10;;
15966;SDS011;15175;48.154;11.534;2024-01-30T21:36:56;7.20;;;3.95;;
15966;SDS011;15175;48.154;11.534;2024-01-30T21:42:59;9.52;;;4.10;;
15966;SDS011;15175;48.154;11.534;2024-01-30T21:49:02;7.97;;;3.88;;
15966;SDS011;15175;48.154;11.534;2024-01-30T21:55:05;8.23;;;3.03;;
15966;SDS011;15175;48.154;11.534;2024-01-30T22:01:09;7.20;;;3.78;;
15966;SDS011;15175;48.154;11.534;2024-01-30T22:07:13;10.38;;;3.60;;
15966;SDS011;15175;48.154;11.534;2024-01-30T22:13:16;11.27;;;3.30;;
15966;SDS011;15175;48.154;11.534;2024-01-30T22:19:20;7.10;;;2.85;;
15966;SDS011;15175;48.154;11.534;2024-01-30T22:25:23;6.18;;;2.75;;
15966;SDS011;15175;48.154;11.534;2024-01-30T22:31:26;6.03;;;2.35;;
15966;SDS011;15175;48.154;11.534;2024-01-30T22:37:28;10.43;;;3.03;;
15966;SDS011;15175;48.154;11.534;2024-01-30T22:43:32;8.40;;;2.40;;
15966;SDS011;15175;48.154;11.534;2024-01-30T22:49:34;6.55;;;2.90;;
15966;SDS011;15175;48.154;11.534;2024-01-30T22:55:36;7.55;;;2.90;;
15966;SDS011;15175;48.154;11.534;2024-01-30T23:01:40;5.93;;;2.45;;
15966;SDS011;15175;48.154;11.534;2024-01-30T23:07:43;14.70;;;3.22;;
15966;SDS011;15175;48.154;11.534;2024-01-30T23:13:45;7.47;;;2.95;;
15966;SDS011;15175;48.154;11.534;2024-01-30T23:19:49;6.25;;;2.25;;
15966;SDS011;15175;48.154;11.534;2024-01-30T23:25:51;7.28;;;2.67;;
15966;SDS011;15175;48.154;11.534;2024-01-30T23:31:53;4.70;;;2.13;;
15966;SDS011;15175;48.154;11.534;2024-01-30T23:37:57;6.57;;;2.40;;
15966;SDS011;15175;48.154;11.534;2024-01-30T23:43:59;4.82;;;2.15;;
15966;SDS011;15175;48.154;11.534;2024-01-30T23:50:01;4.70;;;2.03;;
15966;SDS011;15175;48.154;11.534;2024-01-30T23:56:06;5.03;;;1.80;;
